Weather

Weather Information Services

Current METAR and TAF for Sabadell Airport (LELL).

LELL 281830Z AUTO 06004KT 020V100 9999 FEW001 BKN033 05/M02 Q1020

TAF LELL 281400Z 2815/2915 VRB04KT 9999 SCT040 TX11/2913Z TNM01/2906Z TEMPO 2815/2818 15007KT PROB30 TEMPO 2815/2821 RA BKN030

Current METAR and TAF for Gerona Airport (LEGE).

LEGE 281900Z 02011KT 350V050 9999 SCT055 04/M02 Q1021

TAF LEGE 281700Z 2818/2918 36006KT 9999 FEW030 TX11/2913Z TNM02/2907Z BECMG 2910/2912 04010KT

Current METAR and TAF for Reus Airport (LERS).

LERS 281900Z 27003KT 220V290 9999 FEW030 SCT050 06/01 Q1020

TAF TAF LERS 281400Z 2815/2915 12008KT 9999 FEW030 TX12/2913Z TNM01/2907Z BECMG 2818/2820 30010KT PROB30 TEMPO 2819/2903 RA BKN020 BECMG 2908/2910 14006KT

Current METAR and TAF for Lleida Airport (LEDA).

LEDA 281900Z AUTO 08006KT CAVOK 03/M01 Q1018

TAF LEDA 281400Z 2815/2915 25005KT 9999 FEW040 TX09/2914Z TNM04/2907Z BECMG 2816/2818 08008KT BECMG 2906/2908 VRB04KT

Other amazing weather tools for weather forecast

Ventusky Wind and Temperature Maps

https://www.estofex.org/

Here you have some local Meteo Websites you can check, when flying in Catalunya:

RAW and Decoded METARS
https://e6bx.com/weather/LELL/?showDecoded=1&focuspoint=pressurealt